Es ist keine erhöhte Aufmerksamkeit aufgrund des Wetters notwendig.    Es gibt keine Warnungen.

Meine Webcam more information My webcam


Donnerradar more information blitzortung!


Regenradar more information rain snow radar



METAR-Meldungen aus der Umgebung

   
EDDH - Hamburg
Aktualisierung: 13-11-2019 15:20
Stark bewölkt  
Stark bewölkt  
   Wind: SSW 29.6 km/h
Wind: SSW 29.6 km/h
Temperatur: 6°C
Gefühlt: 2°C
Taupunkt: 2°C
Luftfeuchte: 76%
Luftdruck: 999 hPa
Bewölkt: Stark bewölkt
Sichtbarkeit: More than 10 km
Bewölkung: Stark bewölkt 1700 ft
EDDH 131420Z 20016KT 9999 BKN017 06/02 Q0999 TEMPO 21015G25KT BKN014
EDHL - Lübeck
Aktualisierung: 13-11-2019 15:20
Stark bewölkt  
Stark bewölkt  
   Wind: Süden 11.1 km/h
Wind: Süden 11.1 km/h
Temperatur: 6°C
Gefühlt: 4°C
Taupunkt: 3°C
Luftfeuchte: 81%
Luftdruck: 999 hPa
Bewölkt: Stark bewölkt
Sichtbarkeit: More than 10 km
Bewölkung: Stark bewölkt 1800 ft
EDHL 131420Z 19006KT 140V220 9999 BKN018 06/03 Q0999
EHBK - Amsterdam
Aktualisierung: 13-11-2019 15:25
Bewölkt  
Bewölkt  
   Wind: SSW 22.2 km/h
Wind: SSW 22.2 km/h
Temperatur: 7°C
Gefühlt: 3°C
Taupunkt: 5°C
Luftfeuchte: 87%
Luftdruck: 1001 hPa
Bewölkt: Bewölkt
Sichtbarkeit: More than 10 km
Bewölkung: leicht bewölkt 1400 ft,
Stark bewölkt 1700 ft,
Bewölkt 2000 ft
EHBK 131425Z AUTO 21012KT 9999 FEW014 BKN017 OVC020 07/05 Q1001 NOSIG
EBCV - Mons/Bergen
Aktualisierung: 13-11-2019 15:25
Teilweise bewölkt  
Teilweise bewölkt  
   Wind: SSW 13 km/h
Wind: SSW 13 km/h
Temperatur: 9°C
Gefühlt: 7°C
Taupunkt: 6°C
Luftfeuchte: 82%
Luftdruck: 1001 hPa
Bewölkt: Teilweise bewölkt
Sichtbarkeit: More than 10 km
Bewölkung: leicht bewölkt 2100 ft,
Teilweise bewölkt 4900 ft
EBCV 131425Z AUTO 20007KT 9999 FEW021/// SCT049/// 09/06 Q1001 BLU
ELLX - Luxemburg
Aktualisierung: 13-11-2019 15:20
Bewölkt  
Bewölkt  
   Wind: SSW 16.7 km/h
Wind: SSW 16.7 km/h
Temperatur: 4°C
Gefühlt: 0°C
Taupunkt: 3°C
Luftfeuchte: 93%
Luftdruck: 1003 hPa
Bewölkt: Bewölkt
Sichtbarkeit: 6 km
Bewölkung: leicht bewölkt 200 ft,
Bewölkt 300 ft
ELLX 131420Z 21009KT 180V250 6000 FEW002 OVC003 04/03 Q1003 NOSIG
EBOS - Oostende
Aktualisierung: 13-11-2019 15:20
leicht bewölkt  
leicht bewölkt  
   Wind: SSW 14.8 km/h
Wind: SSW 14.8 km/h
Temperatur: 9°C
Gefühlt: 7°C
Taupunkt: 4°C
Luftfeuchte: 71%
Luftdruck: 1000 hPa
Bewölkt: leicht bewölkt
Sichtbarkeit: More than 10 km
Bewölkung: leicht bewölkt 2000 ft
EBOS 131420Z 21008KT 9999 FEW020 09/04 Q1000 NOSIG

Script entwickelt von  Saratoga-weather.org Angepasst für das Template von  Weerstation Leuven

Sie finden meine Wetter-Infos auch auf:

Weather Underground

Germany Weather Network

AWEKAS

WeatherlinkIP

Von mir verwendete Ausrüstung:

Wetterstation
Davis VP2

Wetterprogramm
Weather Display

WetterComputer
RaspberryPi

Anbieter
1und1

Davis VP2

Weather Display

RaspberryPi

1und1